Airports Norway Sandefjord Airport Torp

Sandefjord Airport Torp (ENTO / TRF)

Facts about Sandefjord Airport Torp

Name Sandefjord Airport Torp
City Sandefjord
Country Norway
ICAO code ENTO
IATA code TRF
Elevation 87.1728 meters (286 feet)

Weather

METAR

Metar data retrieved Friday, 19 July 2024 at 23:25 UTC (8 minutes ago)

ENTO 192320Z AUTO VRB01KT 9999 NCD 15/15 Q1016

Live traffic

Navigraph Charts (account required)